Time;durP1;ratioP1;P1;durP2;ratioP2;P2;SDS_P1;SDS_P2;PMS_P1;PMS_P2;Temp;Humidity;BMP_temperature;BMP_pressure;BME280_temperature;BME280_humidity;BME280_pressure;Samples;Min_cycle;Max_cycle;Signal;HPM_P1;HPM_P2
2022/03/01 00:00:16;;;;;;;18.13;8.88;;;;;;;2.57;65.68;101053.22;5013181;28;20037;-20
2022/03/01 00:02:43;;;;;;;12.23;7.80;;;;;;;2.59;64.95;101048.63;5030854;28;20029;-22
2022/03/01 00:05:09;;;;;;;39.38;18.08;;;;;;;2.16;65.97;101051.78;5012786;28;20017;-20
2022/03/01 00:07:34;;;;;;;37.00;17.77;;;;;;;2.24;67.33;101046.63;5012884;28;20515;-20
2022/03/01 00:10:00;;;;;;;20.23;10.40;;;;;;;2.24;66.42;101044.00;5030610;28;20029;-20
2022/03/01 00:12:25;;;;;;;17.67;9.45;;;;;;;2.66;65.41;101048.09;5030160;28;20073;-20
2022/03/01 00:14:51;;;;;;;15.75;10.18;;;;;;;2.63;65.33;101049.19;5011482;28;20041;-20
2022/03/01 00:17:16;;;;;;;21.42;12.32;;;;;;;2.79;64.84;101044.16;5029348;28;20037;-20
2022/03/01 00:19:42;;;;;;;25.10;14.50;;;;;;;2.28;66.91;101034.84;5011640;28;20093;-20
2022/03/01 00:22:07;;;;;;;29.38;15.95;;;;;;;2.03;68.45;101032.81;5011350;28;20049;-21
2022/03/01 00:24:32;;;;;;;23.48;12.27;;;;;;;1.85;68.42;101028.25;5011519;28;20022;-20
2022/03/01 00:26:58;;;;;;;24.05;12.25;;;;;;;1.66;68.25;101028.25;5029217;28;20037;-21
2022/03/01 00:29:23;;;;;;;15.80;8.63;;;;;;;1.65;68.77;101016.88;5029427;28;20394;-20
2022/03/01 00:31:49;;;;;;;14.90;7.28;;;;;;;1.74;68.13;101026.59;5028900;28;20072;-20
2022/03/01 00:34:14;;;;;;;16.02;8.38;;;;;;;1.89;67.96;101008.59;5029247;28;20087;-20
2022/03/01 00:36:40;;;;;;;20.63;10.98;;;;;;;2.16;68.12;101017.56;5011273;28;20087;-20
2022/03/01 00:39:06;;;;;;;32.92;15.10;;;;;;;2.29;65.80;101026.00;5011226;28;20109;-20
2022/03/01 00:41:31;;;;;;;32.42;15.18;;;;;;;2.34;66.38;101013.22;5029070;28;20045;-20
2022/03/01 00:43:57;;;;;;;18.50;9.73;;;;;;;2.39;65.69;101021.56;5028718;28;20266;-21
2022/03/01 00:46:26;;;;;;;15.77;8.30;;;;;;;2.36;65.50;101011.28;5029223;28;20037;-20
2022/03/01 00:48:52;;;;;;;15.68;8.38;;;;;;;2.38;67.47;101022.50;5010875;28;20041;-20
2022/03/01 00:51:17;;;;;;;13.43;6.88;;;;;;;2.32;66.54;101002.00;5028732;28;20563;-21
2022/03/01 00:53:43;;;;;;;13.63;7.55;;;;;;;2.60;65.63;101012.63;5011138;28;20473;-21
2022/03/01 00:56:08;;;;;;;10.23;6.30;;;;;;;2.07;67.50;100981.59;5011303;28;20041;-20
2022/03/01 00:58:33;;;;;;;9.23;6.03;;;;;;;1.81;69.57;100995.28;5011181;28;20029;-20
2022/03/01 01:00:59;;;;;;;8.88;5.50;;;;;;;1.68;68.69;100994.75;5028767;28;20409;-21
2022/03/01 01:03:24;;;;;;;8.80;5.45;;;;;;;1.48;69.20;100986.03;5011023;28;20030;-21
2022/03/01 01:05:50;;;;;;;9.82;5.60;;;;;;;1.73;68.84;100995.16;5028473;28;20071;-21
2022/03/01 01:08:15;;;;;;;8.85;5.85;;;;;;;1.72;67.60;100994.34;4994768;28;20034;-20
2022/03/01 01:10:41;;;;;;;8.23;5.07;;;;;;;1.68;68.66;100995.56;5010823;28;20056;-22
2022/03/01 01:13:07;;;;;;;9.15;5.30;;;;;;;1.99;68.05;100998.06;4956182;28;1505570;-21
2022/03/01 01:15:32;;;;;;;9.52;5.45;;;;;;;1.94;67.93;100993.22;5009740;28;20045;-20
2022/03/01 01:17:58;;;;;;;9.00;5.57;;;;;;;1.84;68.51;100995.03;5008535;28;20068;-21
2022/03/01 01:20:23;;;;;;;9.65;5.50;;;;;;;1.62;69.19;100985.63;5008138;28;20030;-21
2022/03/01 01:22:49;;;;;;;10.20;6.07;;;;;;;1.91;68.80;100990.84;5007965;28;20029;-20
2022/03/01 01:25:19;;;;;;;9.27;5.50;;;;;;;1.98;67.78;100986.72;5009804;28;20026;-20
2022/03/01 01:27:46;;;;;;;8.48;5.07;;;;;;;2.06;68.43;100987.78;5009829;28;20061;-20
2022/03/01 01:30:14;;;;;;;10.90;5.60;;;;;;;2.15;67.86;100979.06;5008306;28;20482;-21
2022/03/01 01:32:39;;;;;;;8.97;5.03;;;;;;;1.78;69.04;100975.38;5009209;28;20112;-21
2022/03/01 01:35:06;;;;;;;9.48;5.13;;;;;;;1.94;68.75;100985.34;5007653;28;20033;-21
2022/03/01 01:37:31;;;;;;;7.72;4.88;;;;;;;1.73;68.54;100984.63;5008306;28;20036;-20
2022/03/01 01:39:57;;;;;;;9.02;5.70;;;;;;;1.55;69.25;100985.34;4991591;28;20030;-20
2022/03/01 01:42:22;;;;;;;9.25;5.65;;;;;;;1.63;68.51;100983.81;5008542;28;20038;-20
2022/03/01 01:44:48;;;;;;;6.78;4.15;;;;;;;1.06;70.46;100979.16;5007638;28;20033;-20
2022/03/01 01:47:13;;;;;;;8.73;5.45;;;;;;;1.21;70.21;100969.13;5009329;28;20040;-20
2022/03/01 01:49:39;;;;;;;9.13;4.90;;;;;;;1.13;70.75;100969.78;5007391;28;20446;-20
2022/03/01 01:52:05;;;;;;;9.18;5.55;;;;;;;1.06;71.37;100973.06;4991906;28;20029;-20
2022/03/01 01:54:30;;;;;;;7.90;5.00;;;;;;;1.00;71.42;100962.16;5008990;28;20037;-20
2022/03/01 01:56:56;;;;;;;8.40;5.03;;;;;;;1.16;71.49;100958.97;4975070;28;20033;-21
2022/03/01 01:59:21;;;;;;;11.70;6.20;;;;;;;1.07;71.96;100959.81;4991145;28;20033;-20
2022/03/01 02:01:47;;;;;;;11.95;6.50;;;;;;;0.70;72.49;100951.69;5008894;28;20033;-22
2022/03/01 02:04:12;;;;;;;9.48;6.10;;;;;;;0.71;72.40;100967.28;5007300;28;20083;-21
2022/03/01 02:06:52;;;;;;;9.52;6.22;;;;;;;0.59;72.90;100960.47;5007445;28;20034;-20
2022/03/01 02:09:17;;;;;;;9.82;6.38;;;;;;;0.62;74.58;100960.22;5007303;28;20536;-21
2022/03/01 02:11:43;;;;;;;12.02;6.47;;;;;;;0.59;74.06;100958.72;4993825;28;20045;-20
2022/03/01 02:14:08;;;;;;;10.25;6.53;;;;;;;0.52;74.82;100964.59;5028373;28;20048;-21
2022/03/01 02:16:34;;;;;;;10.25;6.47;;;;;;;0.46;74.61;100963.34;5010276;28;20040;-20
2022/03/01 02:19:00;;;;;;;10.60;6.45;;;;;;;0.60;74.90;100962.16;4994387;28;20098;-20
2022/03/01 02:21:25;;;;;;;11.40;7.00;;;;;;;0.68;74.25;100957.06;4994049;28;20041;-20
2022/03/01 02:23:51;;;;;;;12.40;6.55;;;;;;;0.49;74.93;100949.09;5010585;28;20477;-21
2022/03/01 02:26:16;;;;;;;11.40;6.50;;;;;;;0.51;74.85;100949.81;5010348;28;20033;-20
2022/03/01 02:28:42;;;;;;;10.10;6.22;;;;;;;0.62;74.53;100928.72;5028178;28;20036;-20
2022/03/01 02:31:07;;;;;;;10.95;6.60;;;;;;;0.89;73.21;100943.03;5009947;28;20493;-20
2022/03/01 02:33:33;;;;;;;11.30;6.63;;;;;;;1.20;72.81;100939.34;5027847;28;20037;-20
2022/03/01 02:35:58;;;;;;;10.60;6.22;;;;;;;1.23;72.07;100940.06;5010550;28;20026;-20
2022/03/01 02:38:24;;;;;;;9.85;5.93;;;;;;;1.29;71.75;100944.75;5027940;28;20386;-20
2022/03/01 02:40:49;;;;;;;10.27;6.05;;;;;;;1.46;71.30;100948.53;4993604;28;20037;-20
2022/03/01 02:43:16;;;;;;;9.80;6.53;;;;;;;1.32;71.87;100926.09;5027674;28;20484;-20
2022/03/01 02:45:41;;;;;;;10.18;6.00;;;;;;;1.05;72.63;100930.22;5009924;28;20030;-21
2022/03/01 02:48:07;;;;;;;9.10;6.13;;;;;;;1.16;73.03;100932.72;5009765;28;20086;-21
2022/03/01 02:50:32;;;;;;;10.90;5.97;;;;;;;1.27;71.78;100928.28;5027657;28;20060;-21
2022/03/01 02:52:58;;;;;;;9.52;5.70;;;;;;;0.68;73.92;100922.94;5009659;28;20033;-20
2022/03/01 02:55:23;;;;;;;9.70;5.78;;;;;;;1.03;73.02;100926.91;5010275;28;20061;-21
2022/03/01 02:57:49;;;;;;;10.55;6.05;;;;;;;1.25;71.96;100936.34;5027497;28;20425;-21
2022/03/01 03:00:14;;;;;;;10.30;6.03;;;;;;;1.26;71.66;100926.66;5027368;28;20036;-20
2022/03/01 03:02:41;;;;;;;9.70;6.05;;;;;;;1.26;71.73;100926.66;5027304;28;20021;-21
2022/03/01 03:05:07;;;;;;;10.65;6.35;;;;;;;1.10;73.90;100935.06;5026959;28;20524;-20
2022/03/01 03:07:32;;;;;;;10.15;6.00;;;;;;;1.08;73.17;100923.84;5027597;28;20049;-20
2022/03/01 03:09:58;;;;;;;12.25;7.60;;;;;;;0.98;73.68;100908.06;5009955;28;20045;-21
2022/03/01 03:12:23;;;;;;;11.70;7.28;;;;;;;1.03;74.29;100926.91;5027541;28;20505;-21
2022/03/01 03:14:49;;;;;;;10.57;6.75;;;;;;;1.19;72.75;100926.38;5027501;28;20033;-21
2022/03/01 03:17:14;;;;;;;14.85;7.60;;;;;;;0.71;75.07;100913.97;5027328;28;20037;-21
2022/03/01 03:19:40;;;;;;;13.70;9.38;;;;;;;0.90;74.94;100913.19;5027771;28;20057;-20
2022/03/01 03:22:05;;;;;;;14.40;9.43;;;;;;;1.16;74.96;100916.94;4993151;28;20041;-20
2022/03/01 03:24:31;;;;;;;15.90;7.82;;;;;;;1.49;73.17;100890.41;5027661;28;20057;-20
2022/03/01 03:26:57;;;;;;;10.38;6.53;;;;;;;1.73;71.93;100924.16;4993267;28;20029;-21
2022/03/01 03:29:22;;;;;;;11.38;6.70;;;;;;;1.50;71.82;100924.44;5009679;28;20500;-21
2022/03/01 03:31:48;;;;;;;11.70;7.20;;;;;;;1.75;71.45;100923.03;5009188;28;20033;-20
2022/03/01 03:34:14;;;;;;;9.93;6.60;;;;;;;1.51;72.50;100915.59;4993342;28;20508;-20
2022/03/01 03:36:41;;;;;;;11.75;7.45;;;;;;;1.47;72.06;100893.19;5009626;28;20038;-21
2022/03/01 03:39:08;;;;;;;12.32;6.95;;;;;;;0.89;72.77;100908.91;4992945;28;20510;-21
2022/03/01 03:41:34;;;;;;;10.35;6.50;;;;;;;0.67;74.90;100920.44;4993346;28;20116;-20
2022/03/01 03:44:00;;;;;;;14.13;8.10;;;;;;;0.89;74.25;100924.66;5009690;28;20638;-21
2022/03/01 03:46:25;;;;;;;17.05;9.77;;;;;;;1.04;73.74;100919.84;4993534;28;20041;-20
2022/03/01 03:48:52;;;;;;;13.55;8.80;;;;;;;0.82;73.99;100918.25;4992959;28;20056;-20
2022/03/01 03:51:18;;;;;;;13.93;8.35;;;;;;;0.54;75.21;100918.06;4993294;28;20087;-20
2022/03/01 03:53:43;;;;;;;13.30;8.50;;;;;;;0.84;74.63;100916.34;4993162;28;20060;-20
2022/03/01 03:56:09;;;;;;;15.38;8.90;;;;;;;1.36;73.47;100924.84;5027175;28;20470;-21
2022/03/01 03:58:34;;;;;;;12.82;8.32;;;;;;;1.50;73.01;100916.56;5009298;28;20033;-21
2022/03/01 04:01:00;;;;;;;11.68;7.38;;;;;;;1.53;72.14;100918.94;5009004;28;20045;-21
2022/03/01 04:03:26;;;;;;;9.30;6.35;;;;;;;1.57;71.76;100925.56;5009515;28;20456;-21
2022/03/01 04:05:52;;;;;;;11.82;7.28;;;;;;;1.32;71.28;100915.59;5028656;28;20061;-21
2022/03/01 04:08:17;;;;;;;12.38;7.38;;;;;;;1.10;72.78;100922.75;5012890;28;20072;-20
2022/03/01 04:10:44;;;;;;;10.48;6.78;;;;;;;1.24;73.18;100915.44;5012604;28;20066;-20
2022/03/01 04:13:09;;;;;;;12.07;7.35;;;;;;;1.53;71.84;100913.66;5012511;28;20049;-20
2022/03/01 04:15:35;;;;;;;12.90;7.35;;;;;;;1.59;71.71;100897.34;5012503;28;20771;-20
2022/03/01 04:18:00;;;;;;;11.45;7.07;;;;;;;1.43;72.56;100901.47;5012662;28;20134;-20
2022/03/01 04:20:26;;;;;;;11.82;7.30;;;;;;;1.33;74.16;100917.25;5013006;28;20452;-21
2022/03/01 04:22:51;;;;;;;14.18;8.50;;;;;;;1.37;73.00;100913.41;5030441;28;20025;-20
2022/03/01 04:25:17;;;;;;;13.77;7.85;;;;;;;1.20;73.24;100910.44;4996128;28;20547;-20
2022/03/01 04:27:42;;;;;;;13.90;7.95;;;;;;;1.20;72.30;100918.34;5030136;28;20045;-21
2022/03/01 04:30:08;;;;;;;13.85;8.48;;;;;;;1.21;72.74;100882.41;5029992;28;20045;-21
2022/03/01 04:32:34;;;;;;;12.68;7.80;;;;;;;1.36;73.00;100917.81;4995552;28;20022;-20
2022/03/01 04:35:02;;;;;;;16.38;8.93;;;;;;;1.52;71.75;100926.94;4995363;28;20033;-21
2022/03/01 04:37:27;;;;;;;15.43;9.10;;;;;;;1.23;73.60;100927.75;4996431;28;20033;-21
2022/03/01 04:39:53;;;;;;;15.57;9.02;;;;;;;0.86;75.24;100909.16;5030146;28;20025;-22
2022/03/01 04:42:18;;;;;;;15.57;9.43;;;;;;;0.56;76.90;100921.38;5030014;28;20389;-21
2022/03/01 04:44:44;;;;;;;15.07;9.40;;;;;;;0.78;75.98;100912.47;5011831;28;20028;-21
2022/03/01 04:47:09;;;;;;;22.48;12.75;;;;;;;0.56;75.91;100882.84;4995604;28;20481;-20
2022/03/01 04:49:35;;;;;;;20.80;14.48;;;;;;;0.64;76.76;100916.31;5012171;28;20026;-22
2022/03/01 04:52:00;;;;;;;17.98;11.80;;;;;;;0.54;76.74;100897.88;5012411;28;20041;-20
2022/03/01 04:54:26;;;;;;;18.23;11.85;;;;;;;0.78;76.51;100913.31;5011924;28;20480;-21
2022/03/01 04:56:51;;;;;;;17.70;12.52;;;;;;;0.68;76.50;100907.19;5011615;28;20077;-24
2022/03/01 04:59:17;;;;;;;19.90;14.38;;;;;;;1.08;74.86;100914.16;5011736;28;20549;-20
2022/03/01 05:01:42;;;;;;;19.88;12.52;;;;;;;1.38;74.15;100933.44;5011873;28;20071;-20
2022/03/01 05:04:08;;;;;;;19.63;12.38;;;;;;;1.76;73.39;100939.66;5029482;28;20048;-21
2022/03/01 05:06:33;;;;;;;17.63;12.50;;;;;;;1.52;73.75;100940.91;5011765;28;20091;-20
2022/03/01 05:08:59;;;;;;;19.23;12.90;;;;;;;1.73;72.32;100924.16;5029620;28;20048;-20
2022/03/01 05:11:24;;;;;;;18.38;11.52;;;;;;;1.73;72.93;100951.28;4994946;28;20142;-20
2022/03/01 05:13:50;;;;;;;20.67;10.98;;;;;;;1.39;74.18;100943.00;5029384;28;20045;-21
2022/03/01 05:16:15;;;;;;;21.48;10.75;;;;;;;1.65;73.01;100955.56;5028826;28;20558;-20
2022/03/01 05:18:41;;;;;;;24.67;10.90;;;;;;;1.80;71.89;100954.19;5028975;28;20056;-20
2022/03/01 05:21:06;;;;;;;19.38;10.23;;;;;;;1.59;73.31;100947.28;5011932;28;20252;-21
2022/03/01 05:23:32;;;;;;;17.55;9.82;;;;;;;1.12;75.19;100947.09;5029666;28;20037;-20
2022/03/01 05:25:59;;;;;;;16.13;10.05;;;;;;;1.32;75.30;100952.38;4995257;28;20548;-20
2022/03/01 05:28:24;;;;;;;19.30;12.73;;;;;;;0.77;77.38;100958.88;4995028;28;20090;-20
2022/03/01 05:30:50;;;;;;;19.58;12.40;;;;;;;0.83;77.55;100954.09;5011278;28;20545;-21
2022/03/01 05:33:15;;;;;;;21.75;14.23;;;;;;;1.22;76.40;100962.06;5028855;28;20497;-21
2022/03/01 05:35:42;;;;;;;20.65;13.73;;;;;;;1.39;74.95;100971.91;5011275;28;20025;-22
2022/03/01 05:38:09;;;;;;;21.33;11.90;;;;;;;1.72;74.45;100962.78;5011091;28;20072;-20
2022/03/01 05:40:35;;;;;;;18.25;11.60;;;;;;;1.83;73.26;100967.06;5028944;28;20037;-20
2022/03/01 05:43:00;;;;;;;17.35;9.68;;;;;;;1.77;72.71;100968.44;5010528;28;20039;-21
2022/03/01 05:45:26;;;;;;;16.45;10.77;;;;;;;1.55;72.89;100955.56;5028912;28;20107;-21
2022/03/01 05:47:52;;;;;;;16.38;9.55;;;;;;;1.44;73.47;100974.94;5011012;28;20021;-20
2022/03/01 05:50:17;;;;;;;16.38;10.02;;;;;;;1.47;74.25;100966.78;5028663;28;20033;-20
2022/03/01 05:52:43;;;;;;;15.63;9.55;;;;;;;1.42;74.53;100984.75;5028790;28;20056;-21
2022/03/01 05:55:09;;;;;;;24.33;17.77;;;;;;;1.29;75.12;100982.41;5010540;28;20045;-21
2022/03/01 05:57:35;;;;;;;52.45;26.83;;;;;;;1.55;75.71;100990.59;5010850;28;20028;-21
2022/03/01 06:00:00;;;;;;;40.72;23.08;;;;;;;1.96;74.53;100993.06;5010855;28;20684;-20
2022/03/01 06:02:26;;;;;;;34.75;19.52;;;;;;;1.63;74.28;100995.16;5011200;28;20401;-21
2022/03/01 06:04:52;;;;;;;39.88;23.95;;;;;;;1.86;73.81;100986.97;5028325;28;20022;-21
2022/03/01 06:07:18;;;;;;;29.83;16.70;;;;;;;1.96;73.36;100982.53;5010475;28;20086;-20
2022/03/01 06:09:43;;;;;;;22.40;13.95;;;;;;;2.05;72.48;100991.41;5028508;28;20044;-20
2022/03/01 06:12:09;;;;;;;25.23;13.68;;;;;;;1.65;73.52;100971.34;5009936;28;20049;-21
2022/03/01 06:14:34;;;;;;;22.50;12.48;;;;;;;1.94;73.50;100995.84;5011045;28;20038;-20
2022/03/01 06:17:00;;;;;;;23.38;13.75;;;;;;;1.85;74.21;100985.34;5027891;28;20034;-20
2022/03/01 06:19:25;;;;;;;20.40;12.30;;;;;;;1.79;74.73;100986.72;5028278;28;20029;-24
2022/03/01 06:21:52;;;;;;;19.42;12.15;;;;;;;2.00;73.96;100995.28;5028147;28;20025;-20
2022/03/01 06:24:17;;;;;;;23.45;12.88;;;;;;;2.16;72.79;100993.88;5010302;28;20132;-20
2022/03/01 06:26:43;;;;;;;23.17;12.93;;;;;;;2.11;72.80;100998.75;5010227;28;20549;-21
2022/03/01 06:29:08;;;;;;;35.00;19.17;;;;;;;2.01;72.32;100975.91;5027396;28;20033;-20
2022/03/01 06:31:34;;;;;;;32.85;17.98;;;;;;;1.77;73.21;100984.22;5010545;28;20033;-21
2022/03/01 06:33:59;;;;;;;26.77;15.50;;;;;;;1.72;73.71;101001.41;5027838;28;20034;-21
2022/03/01 06:36:25;;;;;;;51.90;25.13;;;;;;;1.80;72.91;100993.66;5028097;28;20421;-20
2022/03/01 06:38:51;;;;;;;28.30;15.35;;;;;;;1.74;73.91;100997.66;4993961;28;20037;-20
2022/03/01 06:41:16;;;;;;;20.98;12.73;;;;;;;1.74;73.91;100996.84;5010054;28;20037;-21
2022/03/01 06:43:42;;;;;;;24.75;14.05;;;;;;;1.98;72.85;100997.25;5010201;28;20063;-20
2022/03/01 06:46:07;;;;;;;42.33;21.05;;;;;;;2.34;72.76;101004.50;5009990;28;20025;-20
2022/03/01 06:48:33;;;;;;;18.15;10.93;;;;;;;2.33;71.81;101001.06;5009971;28;20556;-20
2022/03/01 06:50:58;;;;;;;16.33;9.20;;;;;;;2.23;72.64;101010.78;5027500;28;20040;-21
2022/03/01 06:53:24;;;;;;;29.05;15.60;;;;;;;2.03;73.61;101009.97;5027692;28;20041;-20
2022/03/01 06:55:49;;;;;;;51.05;29.75;;;;;;;1.99;73.83;101003.31;5027515;28;20056;-21
2022/03/01 06:58:15;;;;;;;20.67;11.52;;;;;;;2.55;72.18;101012.22;5027597;28;20037;-21
2022/03/01 07:00:40;;;;;;;34.58;17.10;;;;;;;2.54;71.96;101010.56;5027528;28;20080;-20
2022/03/01 07:03:06;;;;;;;15.48;9.68;;;;;;;2.69;69.61;101018.81;5027300;28;20037;-21
2022/03/01 07:05:31;;;;;;;15.73;9.43;;;;;;;2.40;71.17;101023.19;5009818;28;20034;-20
2022/03/01 07:07:57;;;;;;;13.40;8.10;;;;;;;2.75;70.29;101026.97;5010029;28;20025;-20
2022/03/01 07:10:22;;;;;;;14.43;9.32;;;;;;;2.46;70.71;101021.81;4993429;28;20033;-20
2022/03/01 07:12:48;;;;;;;17.00;10.15;;;;;;;2.78;70.11;101013.53;5027169;28;20056;-22
2022/03/01 07:15:14;;;;;;;13.00;8.13;;;;;;;2.95;68.79;101013.75;5009900;28;20087;-21
2022/03/01 07:17:39;;;;;;;13.55;8.13;;;;;;;2.80;69.53;101018.66;5009649;28;20029;-20
2022/03/01 07:20:07;;;;;;;14.65;8.25;;;;;;;3.10;68.82;101020.16;4993550;28;20040;-20
2022/03/01 07:22:33;;;;;;;33.13;16.02;;;;;;;3.37;67.75;101016.69;5027500;28;20160;-20
2022/03/01 07:24:58;;;;;;;13.43;7.95;;;;;;;3.13;67.43;101019.88;5027126;28;20021;-21
2022/03/01 07:27:23;;;;;;;38.28;19.08;;;;;;;3.36;68.51;101003.66;5009608;28;20041;-21
2022/03/01 07:29:49;;;;;;;22.05;14.23;;;;;;;3.30;69.09;101009.53;5027535;28;20413;-20
2022/03/01 07:32:14;;;;;;;19.65;13.25;;;;;;;3.19;68.89;101019.31;5009666;28;20041;-20
2022/03/01 07:34:41;;;;;;;18.58;12.23;;;;;;;2.88;70.17;101021.41;5027631;28;20040;-20
2022/03/01 07:37:06;;;;;;;19.42;11.43;;;;;;;3.06;70.22;101023.25;5027111;28;20040;-21
2022/03/01 07:39:32;;;;;;;16.98;10.52;;;;;;;3.04;69.59;101015.47;5009235;28;20037;-20
2022/03/01 07:41:57;;;;;;;17.30;10.93;;;;;;;3.07;69.33;101002.03;5031082;28;20056;-20
2022/03/01 07:44:23;;;;;;;15.18;9.10;;;;;;;3.06;69.43;101013.53;5013304;28;20083;-20
2022/03/01 07:46:48;;;;;;;15.85;10.15;;;;;;;3.11;69.31;101006.03;5031101;28;20026;-20
2022/03/01 07:49:14;;;;;;;16.45;10.02;;;;;;;3.11;70.77;101003.41;4997136;28;20112;-20
2022/03/01 07:51:39;;;;;;;15.60;9.80;;;;;;;2.80;71.43;100982.59;5030990;28;20041;-20
2022/03/01 07:54:06;;;;;;;16.50;11.13;;;;;;;2.97;71.67;100999.44;5030751;28;20040;-21
2022/03/01 07:56:32;;;;;;;13.90;9.07;;;;;;;2.98;72.00;101016.06;5030689;28;20037;-20
2022/03/01 07:58:57;;;;;;;17.48;9.55;;;;;;;3.01;71.41;101018.44;5030658;28;20076;-20
2022/03/01 08:01:23;;;;;;;15.88;9.00;;;;;;;3.10;70.73;101009.63;5012914;28;20025;-21
2022/03/01 08:03:49;;;;;;;14.73;9.98;;;;;;;2.75;71.88;101019.06;5031128;28;20033;-20
2022/03/01 08:06:15;;;;;;;16.90;10.10;;;;;;;2.55;72.98;101004.31;5030725;28;20047;-21
2022/03/01 08:08:40;;;;;;;21.58;11.70;;;;;;;2.45;75.02;101000.88;5012661;28;20037;-20
2022/03/01 08:11:06;;;;;;;15.27;10.10;;;;;;;2.45;75.01;101024.56;5030620;28;20544;-20
2022/03/01 08:13:32;;;;;;;18.30;11.50;;;;;;;2.35;74.66;101012.28;5030682;28;20049;-20
2022/03/01 08:15:58;;;;;;;22.08;12.02;;;;;;;2.18;75.43;101019.06;5030607;28;20055;-20
2022/03/01 08:18:23;;;;;;;21.80;12.57;;;;;;;2.47;75.64;101009.47;5012745;28;20697;-20
2022/03/01 08:20:49;;;;;;;16.27;10.65;;;;;;;2.16;74.55;100992.06;5012409;28;20120;-19
2022/03/01 08:23:14;;;;;;;17.50;10.85;;;;;;;2.73;73.21;101026.28;5030164;28;20035;-20
2022/03/01 08:25:39;;;;;;;19.17;10.73;;;;;;;2.65;73.85;101031.44;5030646;28;20543;-20
2022/03/01 08:28:05;;;;;;;15.77;10.30;;;;;;;2.41;74.33;101027.50;5030452;28;20108;-21
2022/03/01 08:30:30;;;;;;;17.13;10.60;;;;;;;2.80;72.55;101023.94;5030200;28;20033;-20
2022/03/01 08:32:56;;;;;;;15.18;9.93;;;;;;;3.33;72.52;101027.69;5030207;28;20034;-20
2022/03/01 08:35:22;;;;;;;14.18;9.10;;;;;;;3.06;70.63;101023.25;5030113;28;20040;-20
2022/03/01 08:37:47;;;;;;;15.60;9.48;;;;;;;3.10;70.17;101024.63;5030132;28;20048;-20
2022/03/01 08:40:13;;;;;;;14.23;9.00;;;;;;;3.44;68.84;101021.38;5030025;28;20040;-20
2022/03/01 08:42:39;;;;;;;14.60;9.23;;;;;;;3.24;70.13;101016.22;5030310;28;20033;-20
2022/03/01 08:45:05;;;;;;;12.77;7.63;;;;;;;3.09;69.44;101022.97;5029943;28;20051;-19
2022/03/01 08:47:31;;;;;;;15.73;9.00;;;;;;;3.98;69.74;101040.69;5012500;28;20091;-19
2022/03/01 08:49:56;;;;;;;14.43;9.00;;;;;;;4.38;66.76;101028.81;5030232;28;20030;-20
2022/03/01 08:52:21;;;;;;;12.88;7.68;;;;;;;4.23;65.40;101028.53;5029520;28;20472;-19
2022/03/01 08:54:47;;;;;;;14.82;7.95;;;;;;;3.97;66.73;101029.31;5012353;28;20026;-21
2022/03/01 08:57:12;;;;;;;13.25;7.38;;;;;;;3.69;67.85;101025.09;5029904;28;20037;-20
2022/03/01 08:59:38;;;;;;;11.90;7.97;;;;;;;4.03;67.01;101028.69;5030350;28;20456;-19
2022/03/01 09:02:04;;;;;;;12.07;8.10;;;;;;;4.57;66.52;101039.16;5029715;28;20060;-20
2022/03/01 09:04:29;;;;;;;11.43;8.13;;;;;;;4.76;65.20;101016.97;5029661;28;20037;-21
2022/03/01 09:06:55;;;;;;;12.68;8.23;;;;;;;5.15;65.32;101035.00;5029303;28;20040;-20
2022/03/01 09:09:20;;;;;;;12.55;7.57;;;;;;;4.40;66.12;101030.28;5029399;28;20017;-20
2022/03/01 09:11:46;;;;;;;13.90;8.95;;;;;;;4.53;65.31;101029.88;5029561;28;20552;-20
2022/03/01 09:14:11;;;;;;;15.05;8.68;;;;;;;5.05;63.66;101034.28;5029471;28;20037;-21
2022/03/01 09:16:38;;;;;;;13.45;8.43;;;;;;;5.04;63.71;101024.69;5029460;28;20052;-20
2022/03/01 09:19:04;;;;;;;12.57;7.57;;;;;;;5.15;62.29;101021.78;5011376;28;20091;-20
2022/03/01 09:21:30;;;;;;;11.57;6.82;;;;;;;4.71;61.61;101032.47;5029426;28;20124;-20
2022/03/01 09:23:55;;;;;;;13.10;8.60;;;;;;;5.18;63.87;101032.00;5029339;28;20803;-21
2022/03/01 09:26:21;;;;;;;20.63;12.65;;;;;;;5.11;61.81;100999.28;5029259;28;20026;-20
2022/03/01 09:28:46;;;;;;;13.55;8.18;;;;;;;5.09;62.14;101003.91;5029207;28;20524;-20
2022/03/01 09:31:12;;;;;;;15.70;8.90;;;;;;;5.36;59.26;101036.38;5029407;28;20038;-20
2022/03/01 09:33:42;;;;;;;35.83;22.08;;;;;;;5.36;60.34;101026.63;5029274;28;20033;-20
2022/03/01 09:36:09;;;;;;;17.38;11.15;;;;;;;5.68;59.97;101021.56;5029011;28;20516;-20
2022/03/01 09:38:35;;;;;;;17.52;9.25;;;;;;;5.85;58.16;101025.91;5029171;28;20037;-20
2022/03/01 09:41:00;;;;;;;13.35;8.95;;;;;;;5.63;55.55;101019.41;5028907;28;20639;-20
2022/03/01 09:43:26;;;;;;;14.27;9.13;;;;;;;5.94;56.03;101030.19;5011342;28;20041;-20
2022/03/01 09:45:51;;;;;;;15.15;8.63;;;;;;;6.07;57.69;101031.53;5028844;28;20029;-20
2022/03/01 09:48:17;;;;;;;12.45;8.00;;;;;;;6.06;57.43;101037.84;5028708;28;20057;-20
2022/03/01 09:50:42;;;;;;;14.02;8.38;;;;;;;5.88;59.01;101009.66;5010734;28;20037;-20
2022/03/01 09:53:08;;;;;;;11.98;7.88;;;;;;;5.94;56.98;101024.91;5010625;28;20064;-20
2022/03/01 09:55:33;;;;;;;12.85;7.97;;;;;;;6.06;57.25;101025.44;5010812;28;20091;-20
2022/03/01 09:57:58;;;;;;;49.63;42.22;;;;;;;6.38;54.81;101011.34;5028954;28;20808;-20
2022/03/01 10:00:24;;;;;;;25.17;16.05;;;;;;;6.55;56.61;101032.50;5028748;28;20029;-22
2022/03/01 10:02:53;;;;;;;18.05;12.98;;;;;;;6.59;54.00;101012.63;5009946;28;20088;-20
2022/03/01 10:05:19;;;;;;;14.77;9.30;;;;;;;7.10;55.66;101013.09;5028244;28;20040;-21
2022/03/01 10:07:45;;;;;;;13.75;9.45;;;;;;;7.19;54.16;101020.03;5010637;28;20059;-20
2022/03/01 10:10:16;;;;;;;15.43;9.90;;;;;;;7.41;54.44;100980.44;5028153;28;20037;-21
2022/03/01 10:12:42;;;;;;;14.45;8.90;;;;;;;7.41;51.88;101022.91;5025498;28;20545;-20
2022/03/01 10:15:10;;;;;;;12.55;8.50;;;;;;;6.36;52.93;101031.88;5027706;28;20421;-20
2022/03/01 10:17:39;;;;;;;15.02;9.20;;;;;;;6.10;54.30;101008.22;5028264;28;20482;-20
2022/03/01 10:20:12;;;;;;;13.82;9.18;;;;;;;5.63;57.96;101016.75;5028219;28;20037;-20
2022/03/01 10:22:52;;;;;;;12.02;8.07;;;;;;;5.88;55.92;101014.97;5011158;28;20025;-20
2022/03/01 10:25:22;;;;;;;13.45;9.18;;;;;;;6.15;55.06;101010.34;5010681;28;20036;-20
2022/03/01 10:27:49;;;;;;;14.32;9.20;;;;;;;5.73;55.35;100984.84;5028150;28;20477;-20
2022/03/01 10:30:33;;;;;;;14.50;9.30;;;;;;;5.22;56.75;100988.41;5010469;28;20743;-20
2022/03/01 10:33:10;;;;;;;12.38;8.48;;;;;;;5.69;54.98;101005.53;5028075;28;20037;-20
2022/03/01 10:35:37;;;;;;;13.40;8.23;;;;;;;5.98;52.40;100999.78;5028126;28;20030;-20
2022/03/01 10:38:03;;;;;;;37.63;24.50;;;;;;;5.96;54.01;100982.41;5027903;28;20073;-20
2022/03/01 10:40:28;;;;;;;16.00;9.65;;;;;;;5.95;53.86;101000.13;5028091;28;20072;-20
2022/03/01 10:43:02;;;;;;;13.10;8.65;;;;;;;5.98;55.15;100993.66;5027522;28;20037;-20
2022/03/01 10:45:36;;;;;;;13.98;9.93;;;;;;;6.40;54.31;100993.44;5010678;28;20060;-20
2022/03/01 10:48:03;;;;;;;14.73;9.10;;;;;;;6.24;53.22;100980.22;5027889;28;20037;-21
2022/03/01 10:50:29;;;;;;;13.73;8.98;;;;;;;5.75;53.33;100951.13;5028020;28;20095;-19
2022/03/01 10:52:56;;;;;;;15.38;10.02;;;;;;;6.11;53.17;100987.84;5027738;28;20776;-20
2022/03/01 10:55:32;;;;;;;12.57;8.57;;;;;;;5.50;54.90;100963.50;5027701;28;20077;-20
2022/03/01 10:58:06;;;;;;;12.80;8.82;;;;;;;5.37;55.53;100963.97;5027864;28;20034;-20
2022/03/01 11:00:32;;;;;;;14.50;8.50;;;;;;;5.62;57.63;100968.31;5027537;28;20412;-21
2022/03/01 11:02:58;;;;;;;14.15;8.32;;;;;;;5.14;58.04;100971.69;5027440;28;20052;-20
2022/03/01 11:05:23;;;;;;;14.85;10.02;;;;;;;5.11;60.93;100970.19;5027403;28;20041;-20
2022/03/01 11:07:50;;;;;;;15.55;11.63;;;;;;;4.83;59.58;100961.66;4993303;28;20044;-20
2022/03/01 11:10:16;;;;;;;16.38;10.50;;;;;;;5.07;60.95;100947.72;5010014;28;20041;-20
2022/03/01 11:12:42;;;;;;;14.85;9.95;;;;;;;4.98;62.19;100960.06;5026140;28;20056;-20
2022/03/01 11:15:08;;;;;;;16.70;10.13;;;;;;;5.16;63.76;100953.84;5012088;28;20044;-20
2022/03/01 11:17:55;;;;;;;14.50;9.18;;;;;;;5.17;61.74;100958.97;5031884;28;20048;-20